Aeroporto :
LOGIN :

Iscrizione | Disclaimer

   EN    FR    IT 

 










Sommario :    VFR   VFR Marginale   IFR   IFR Intensivo   IFR Molto Intensivo
Visibilità : 
Base nubi : 
>= 8 km
>= 3000ft
5 / 8 km
1000 / 3000 ft
1500m / 5 km
500 / 1000 ft
800 / 1500m
200 / 500 ft
< 800m
< 200 ft
Simboli :   Temporali  Nebbia  Neve Forte  Precipitazioni Forti  Vento > 20 kt
SIGMETs :   Varie  Temporali  Ghiacco  Turbolenza  Onda orograficha  Ceneri Vulcaniche






- Altitudine del aeroporto : 510 ft


LJCE - Cerklje

ULTIMO METAR :
  • 051300Z AUTO VRB02KT 9999 SCT017/// BKN053/// BKN087/// 21/16 Q1007 RERA

METARs OBSOLETI :
  • 051230Z AUTO 24004KT 200V290 9999 SHRA OVC044/// 20/17 Q1007
  • 051200Z AUTO VRB01KT 9999 -RA OVC027/// 20/17 Q1006 RERA
  • 051130Z AUTO VRB01KT 9999 -RA FEW011/// BKN021/// OVC060/// 20/18 Q1006 RERA
  • 051100Z AUTO VRB01KT 9999 -SHRA BKN022/// BKN033/// OVC100/// 20/17 Q1006
  • 051030Z AUTO VRB02KT 9999 -SHRA BKN033/// 20/17 Q1006

TAF TAF LJCE
Valido dal 05 a 12 ore il 05 a 21 ore UTC


051100Z 0512/0521 VRB02KT 9999 SCT015
TEMPO 0512/0514 SHRA SCT030TCU
PROB30
TEMPO 0512/0513 5000 TSRA SCT030CB



MetMap, La meteo Aeronautica in un colpo d'occhio ! - Copyright ORBIFLY Dicembre 2007 - Disclaimer

ORBIFLY MET'MAP TEAM :

Programmazione e sviluppo : Alexandra Zaïnal
Concezione : Baudouin d'Aumeries
Aiuto per la programmazione : Marc-Olivier Méhu
Supporto tecnico e logistico : Manuel Goepfert
Aiuto per la traduzione : Arnaldo La Scala

Contatto : metmap@orbifly.com




FONTI E CREDITI :

   NOAA